Clayton, Texas
Current Conditions -  °F | °C
As of 10:55 PM on Wednesday 22 Oct 2014 (Local Time) from KRFI Reporting Station
Clear Clear  
Wind Chill: 62°   Ceiling: Unl
Heat Index: 62°   Visibility: 10mi
Dew Point: 53°   Wind: 3mph
Humidity: 72%   Direction: 80°E
Pressure: 30.14"   Gusts: NA
Location:  32.1°N, 94.48°W
Report Text: KRFI 230355Z AUTO 08003KT 10SM CLR 17/12 A3014 RMK AO2 T01650115
Loading
Personal Weather Stations






























Interactive Weather Map
Tropical Storm Tracking
New forecast layout! Learn more

10-Day Weather Forecast

Advertisements
Track Severe Weather on mobile